createdAt,value
2018-06-11T17:34:45.864Z,99470.59
2018-06-11T17:37:19.782Z,99466.12
2018-06-11T17:39:58.622Z,99470.38
2018-06-11T17:42:34.739Z,99464.42
2018-06-11T17:45:08.700Z,99461.09
2018-06-11T17:47:44.292Z,99457.23
2018-06-11T17:50:18.454Z,99453.80
2018-06-11T17:52:58.301Z,99451.18
2018-06-11T17:55:41.015Z,99447.98
2018-06-11T17:58:15.602Z,99452.13
2018-06-11T18:00:53.998Z,99456.25
2018-06-11T18:03:26.996Z,99459.94
2018-06-11T18:06:00.978Z,99457.21
2018-06-11T18:08:37.421Z,99458.23
2018-06-11T18:11:13.778Z,99455.29
2018-06-11T18:13:54.673Z,99456.56
2018-06-11T18:16:35.228Z,99460.08
2018-06-11T18:19:15.258Z,99457.90
2018-06-11T18:21:53.565Z,99456.91
2018-06-11T18:24:33.293Z,99461.95
2018-06-11T18:27:12.180Z,99464.03
2018-06-11T18:29:59.389Z,99459.65
2018-06-11T18:32:36.366Z,99460.20
2018-06-11T18:35:13.741Z,99454.00
2018-06-11T18:37:55.965Z,99450.02
2018-06-11T18:40:33.973Z,99450.09
2018-06-11T18:43:16.330Z,99455.65
2018-06-11T18:45:58.025Z,99460.64
2018-06-11T18:48:32.983Z,99459.63
2018-06-11T18:51:07.782Z,99459.45
2018-06-11T18:53:50.536Z,99460.55
2018-06-11T18:56:25.453Z,99458.76
2018-06-11T18:59:06.953Z,99461.97
2018-06-11T19:01:48.752Z,99465.78
2018-06-11T19:04:29.989Z,99471.01
2018-06-11T19:07:08.952Z,99468.94
2018-06-11T19:09:47.681Z,99477.71
2018-06-11T19:12:24.914Z,99474.92
2018-06-11T19:14:59.386Z,99478.22
2018-06-11T19:17:34.758Z,99489.30
2018-06-11T19:20:11.638Z,99489.56
2018-06-11T19:22:46.040Z,99498.41
2018-06-11T19:25:23.263Z,99503.36
2018-06-11T19:27:59.464Z,99504.42
2018-06-11T19:30:35.606Z,99504.00
2018-06-11T19:33:10.426Z,99506.80
2018-06-11T19:35:49.048Z,99508.13
2018-06-11T19:38:28.180Z,99511.14
2018-06-11T19:41:05.044Z,99513.91
2018-06-11T19:43:40.819Z,99515.84
2018-06-11T19:46:15.740Z,99519.22
2018-06-11T19:49:05.654Z,99524.72
2018-06-11T19:51:40.252Z,99526.45
2018-06-11T19:54:17.607Z,99524.54
2018-06-11T19:57:02.724Z,99529.06
2018-06-11T19:59:40.683Z,99528.64
2018-06-11T20:02:14.549Z,99525.45
2018-06-11T20:04:57.533Z,99534.66
2018-06-11T20:07:32.146Z,99537.72
2018-06-11T20:10:19.323Z,99533.34
2018-06-11T20:13:06.807Z,99538.77
2018-06-11T20:15:48.050Z,99539.45
2018-06-11T20:18:26.305Z,99533.09
2018-06-11T20:21:06.973Z,99533.80
2018-06-11T20:23:41.840Z,99539.06
2018-06-11T20:26:19.969Z,99539.91
2018-06-11T20:29:00.977Z,99535.52
2018-06-11T20:31:36.031Z,99534.05
2018-06-11T20:34:20.326Z,99532.89
2018-06-11T20:36:55.765Z,99536.46
2018-06-11T20:39:37.252Z,99541.27
2018-06-11T20:42:17.719Z,99531.03
2018-06-11T20:44:52.364Z,99534.73
2018-06-11T20:47:25.918Z,99532.10
2018-06-11T20:50:05.851Z,99540.46
2018-06-11T20:52:46.795Z,99543.11
2018-06-11T20:55:36.579Z,99539.46
2018-06-11T20:58:14.695Z,99542.48
2018-06-11T21:00:55.169Z,99540.25
2018-06-11T21:03:41.845Z,99537.98
2018-06-11T21:06:20.994Z,99541.60
2018-06-11T21:08:56.412Z,99540.48
2018-06-11T21:11:34.697Z,99536.86
2018-06-11T21:14:17.357Z,99531.30
2018-06-11T21:16:53.397Z,99533.29
2018-06-11T21:19:31.104Z,99531.81
2018-06-11T21:22:11.819Z,99523.95
2018-06-11T21:24:48.290Z,99521.42
2018-06-11T21:27:23.488Z,99520.19
2018-06-11T21:30:05.856Z,99516.89
2018-06-11T21:32:41.456Z,99514.13
2018-06-11T21:35:25.300Z,99511.84
2018-06-11T21:38:07.565Z,99512.20
2018-06-11T21:40:43.177Z,99514.95
2018-06-11T21:43:22.227Z,99515.63
2018-06-11T21:46:29.376Z,99517.73
2018-06-11T21:49:14.764Z,99517.03
2018-06-11T21:51:52.130Z,99517.78
2018-06-11T21:54:27.342Z,99520.83
2018-06-11T21:57:02.684Z,99520.84
2018-06-11T21:59:38.833Z,99517.75
2018-06-11T22:02:13.305Z,99518.36
2018-06-11T22:04:47.321Z,99521.22
2018-06-11T22:07:22.560Z,99529.95
2018-06-11T22:09:55.458Z,99529.20
2018-06-11T22:12:32.507Z,99525.73
2018-06-11T22:15:20.102Z,99527.77
2018-06-11T22:17:56.874Z,99531.14
2018-06-11T22:20:33.491Z,99527.98
2018-06-11T22:23:14.514Z,99532.33
2018-06-11T22:25:55.559Z,99535.37
2018-06-11T22:28:31.845Z,99536.63
2018-06-11T22:31:11.935Z,99540.23
2018-06-11T22:33:45.620Z,99540.75
2018-06-11T22:36:18.551Z,99535.13
2018-06-11T22:38:55.091Z,99538.50
2018-06-11T22:41:29.654Z,99539.23
2018-06-11T22:44:03.213Z,99540.39
2018-06-11T22:46:36.877Z,99543.95
2018-06-11T22:49:13.689Z,99545.89
2018-06-11T22:51:57.231Z,99546.13
2018-06-11T22:54:31.284Z,99546.88
2018-06-11T22:57:04.775Z,99548.55
2018-06-11T22:59:39.692Z,99551.37
2018-06-11T23:02:14.660Z,99547.12
2018-06-11T23:04:47.266Z,99544.25
2018-06-11T23:07:23.808Z,99540.80
2018-06-11T23:09:56.304Z,99546.03
2018-06-11T23:12:31.345Z,99546.16
2018-06-11T23:15:07.069Z,99549.34
2018-06-11T23:17:40.538Z,99546.13
2018-06-11T23:20:14.957Z,99544.17
2018-06-11T23:22:48.809Z,99539.11
2018-06-11T23:25:22.077Z,99529.48
2018-06-11T23:27:54.596Z,99537.94
2018-06-11T23:30:30.450Z,99531.90
2018-06-11T23:33:04.050Z,99538.96
2018-06-11T23:35:37.225Z,99532.79
2018-06-11T23:38:11.117Z,99538.27
2018-06-11T23:40:46.964Z,99535.11
2018-06-11T23:43:26.944Z,99538.43
2018-06-11T23:45:59.495Z,99538.81
2018-06-11T23:48:32.513Z,99536.66
2018-06-11T23:51:05.413Z,99546.66
2018-06-11T23:53:41.834Z,99542.99
2018-06-11T23:56:14.495Z,99535.16
2018-06-11T23:58:51.300Z,99529.49
